Terminal Aerodrome Forecast
Issued by NWS

Home | Current Version | Previous Version | Text Only | Print | Product List | Glossary On
Versions: 1 2 3 4 5 6 7 8 9 10 11 12 13 14 15 16 17 18 19 20 21 22 23 24
727
FTUS42 KCAE 081911 AAA
TAFCUB
TAF AMD
KCUB 081911Z 0819/0918 24012G20KT P6SM SCT050 BKN100
      TEMPO 0819/0822 6SM -SHRA BKN050
     FM090000 27011G17KT P6SM SCT100
     FM091500 27015G25KT P6SM BKN100=

USA.gov is the U.S. government's official web portal to all federal, state and local government web resources and services.